Detall de PIREP

Printer-friendly versionPDF version

[2010/12/27 23:07:00]
Flight IATA:CT2114
Pilot Number:026
Company ICAO:CAT
Aircraft Type:DC85/A
PAX:136
Departing Airport: LEVC
Destination Airport: LEVD
Alternate Airport:LEMD
Online: VATSIM
Route:CENTA/N0300F230 A33 PRADO/N0300F250 UN733 DISKO DCT
Flight Level:FL250
No Slew and time accel
No pause
Crash detect
Detect pilot in Cockpit between each 30 and 45 minutes
23:07 Zero fuel Weight: 178691 Lbs, Fuel Weight: 24001 Lbs
23:07 VATSIM:LEVC 272300Z VRB02KT CAVOK 01/M01 Q1020 NOSIG
23:07 VATSIM:LEVD 272200Z 25004KT 200V290 9999 FEW030 01/M04 Q1019
23:08 VOICE CATALONIAN / LEVC HUB ROUTE CT2114
23:11 Parking Brakes off
23:18 Take-off
23:18 Take off Weight: 201759 Lbs
23:18 Wind: 233º @ 002 Knots Heading: 295º
23:18 POS N39º 29´ 39´´ W000º 29´ 42´´
23:18 Gear Up: 187 Knots
23:18 Flaps:2 at 187 Knots
23:19 Flaps:1 at 189 Knots
23:20 Flaps:0 at 222 Knots
23:33 Wind:162º@002 Knots Heading: 298º Ground Speed: 405 Knots Altitude 24074 ft
23:33 TOC
23:33 Fuel Weight: 18599 Lb
23:42 TOD
23:42 Fuel Weight: 16389 Lb
23:48 Wind:011º@004 Knots Heading: 297º Ground Speed: 388 Knots Altitude 17007 ft
00:02 Flaps:1 at 181 Knots
00:02 Gear Down: 188 Knots
00:03 Wind:259º@004 Knots Heading: 226º Ground Speed: 177 Knots Altitude 4790 ft
00:03 Flaps:2 at 162 Knots
00:04 Flaps:3 at 171 Knots
00:05 Flaps:4 at 147 Knots
00:05 Flaps:5 at 132 Knots
00:06 TouchDown:Rate -200 ft/min Speed: 114 Knots
00:06 VATSIM:LEVD 272200Z 25004KT 200V290 9999 FEW030 01/M04 Q1019
00:06 Land
00:06 Wind:253º@004 Knots
00:06 Heading: 227º
00:06 Flight Duration: 00:48
00:06 Landing Weight: 192318 Lbs
00:06 POS N41º 42´ 16´´ W004º 51´ 16´´
00:17 Parking brakes on
00:17 Block to Block Duration: 01:06
00:17 Final Fuel: 12233 Lbls
00:17 Spent Fuel: 11768Lbls
00:17 Flight Length: 267 NM
00:17 TOD Land Length: 118 NM

Exportar CSV

Powered by Drupal - Modified by Danger4k